createdAt,value
2019-05-18T00:00:12.450Z,0
2019-05-18T00:01:01.754Z,0
2019-05-18T00:01:43.144Z,0
2019-05-18T00:02:23.559Z,0
2019-05-18T00:03:03.974Z,0
2019-05-18T00:03:44.380Z,0
2019-05-18T00:04:24.771Z,0
2019-05-18T00:05:06.098Z,0
2019-05-18T00:05:46.500Z,0
2019-05-18T00:06:26.927Z,0
2019-05-18T00:15:52.556Z,0
2019-05-18T00:16:32.946Z,0
2019-05-18T00:17:24.780Z,0
2019-05-18T00:17:53.750Z,0
2019-05-18T00:18:34.143Z,0
2019-05-18T00:19:14.457Z,0
2019-05-18T00:19:54.901Z,0
2019-05-18T00:20:35.238Z,0
2019-05-18T00:21:15.626Z,0
2019-05-18T00:21:56.039Z,0
2019-05-18T00:22:36.456Z,0
2019-05-18T00:23:16.850Z,0
2019-05-18T00:23:57.300Z,0
2019-05-18T00:32:42.334Z,0
2019-05-18T00:33:22.773Z,0
2019-05-18T00:34:03.185Z,0
2019-05-18T00:34:43.513Z,0
2019-05-18T00:35:23.918Z,0
2019-05-18T00:36:44.666Z,0
2019-05-18T00:37:25.063Z,0
2019-05-18T00:38:05.483Z,0
2019-05-18T00:38:45.886Z,0
2019-05-18T00:39:26.286Z,0
2019-05-18T00:40:06.649Z,0
2019-05-18T00:40:47.034Z,0
2019-05-18T00:50:12.511Z,0
2019-05-18T00:50:52.871Z,0
2019-05-18T00:51:33.311Z,0
2019-05-18T00:52:13.626Z,0
2019-05-18T00:52:53.985Z,0
2019-05-18T00:54:14.786Z,0
2019-05-18T00:54:55.175Z,0
2019-05-18T00:55:35.551Z,0
2019-05-18T00:56:15.920Z,0
2019-05-18T00:56:56.367Z,0
2019-05-18T00:57:36.720Z,0
2019-05-18T00:58:17.106Z,0
2019-05-18T01:07:02.267Z,0
2019-05-18T01:07:42.614Z,0
2019-05-18T01:08:23.068Z,0
2019-05-18T01:09:03.481Z,0
2019-05-18T01:09:43.817Z,0
2019-05-18T01:10:24.236Z,0
2019-05-18T01:11:04.596Z,0
2019-05-18T01:11:45.073Z,0
2019-05-18T01:12:25.369Z,0
2019-05-18T01:13:05.746Z,0
2019-05-18T01:13:46.188Z,0
2019-05-18T01:14:26.663Z,0
2019-05-18T01:15:06.984Z,0
2019-05-18T01:23:52.300Z,0
2019-05-18T01:24:32.688Z,0
2019-05-18T01:25:13.093Z,0
2019-05-18T01:25:53.520Z,0
2019-05-18T01:26:33.914Z,0
2019-05-18T01:27:14.345Z,0
2019-05-18T01:27:54.729Z,0
2019-05-18T01:28:35.181Z,0
2019-05-18T01:29:15.646Z,0
2019-05-18T01:29:56.025Z,0
2019-05-18T01:30:36.463Z,0
2019-05-18T01:31:16.836Z,0
2019-05-18T01:31:57.238Z,0
2019-05-18T01:40:42.334Z,0
2019-05-18T01:41:22.762Z,0
2019-05-18T01:42:03.122Z,0
2019-05-18T01:42:43.557Z,0
2019-05-18T01:43:23.986Z,0
2019-05-18T01:44:04.416Z,0
2019-05-18T01:44:44.761Z,0
2019-05-18T01:45:25.176Z,0
2019-05-18T01:46:05.599Z,0
2019-05-18T01:46:46.035Z,0
2019-05-18T01:47:26.422Z,0
2019-05-18T01:48:13.580Z,0
2019-05-18T01:48:47.237Z,0
2019-05-18T01:57:32.629Z,0
2019-05-18T01:58:12.988Z,0
2019-05-18T01:58:53.387Z,0
2019-05-18T01:59:33.795Z,0
2019-05-18T02:00:14.222Z,0
2019-05-18T02:00:54.624Z,0
2019-05-18T02:01:35.044Z,0
2019-05-18T02:02:15.443Z,0
2019-05-18T02:02:55.847Z,0
2019-05-18T02:03:36.278Z,0
2019-05-18T02:04:16.694Z,0
2019-05-18T02:04:57.123Z,0
2019-05-18T02:13:42.491Z,0
2019-05-18T02:14:22.927Z,0
2019-05-18T02:15:03.384Z,0
2019-05-18T02:15:43.791Z,0
2019-05-18T02:16:24.230Z,0
2019-05-18T02:17:04.681Z,0
2019-05-18T02:17:45.073Z,0
2019-05-18T02:18:28.924Z,0
2019-05-18T02:19:05.922Z,0
2019-05-18T02:19:46.351Z,0
2019-05-18T02:20:26.775Z,0
2019-05-18T02:21:07.213Z,0
2019-05-18T02:29:52.598Z,0
2019-05-18T02:30:32.971Z,0
2019-05-18T02:31:13.354Z,0
2019-05-18T02:31:53.755Z,0
2019-05-18T02:32:34.161Z,0
2019-05-18T02:33:14.576Z,0
2019-05-18T02:33:55.010Z,0
2019-05-18T02:34:35.416Z,0
2019-05-18T02:35:15.856Z,0
2019-05-18T02:35:56.265Z,0
2019-05-18T02:36:36.716Z,0
2019-05-18T02:37:17.115Z,0
2019-05-18T02:46:02.647Z,0
2019-05-18T02:46:43.054Z,0
2019-05-18T02:47:23.475Z,0
2019-05-18T02:48:03.906Z,0
2019-05-18T02:48:49.163Z,0
2019-05-18T02:49:24.767Z,0
2019-05-18T02:50:05.173Z,0
2019-05-18T02:51:25.966Z,0
2019-05-18T02:52:06.392Z,0
2019-05-18T02:52:46.798Z,0
2019-05-18T02:53:27.197Z,0
2019-05-18T03:02:52.611Z,0
2019-05-18T03:03:33.030Z,0
2019-05-18T03:04:13.392Z,0
2019-05-18T03:04:53.763Z,0
2019-05-18T03:05:34.141Z,0
2019-05-18T03:06:14.553Z,0
2019-05-18T03:06:54.907Z,0
2019-05-18T03:07:35.310Z,0
2019-05-18T03:08:15.679Z,0
2019-05-18T03:08:56.062Z,0
2019-05-18T03:09:36.440Z,0
2019-05-18T03:10:16.830Z,0
2019-05-18T03:10:57.243Z,0
2019-05-18T03:19:42.447Z,0
2019-05-18T03:20:22.850Z,0
2019-05-18T03:21:03.223Z,0
2019-05-18T03:21:43.623Z,0
2019-05-18T03:22:24.037Z,0
2019-05-18T03:23:44.837Z,0
2019-05-18T03:24:25.242Z,0
2019-05-18T03:25:05.653Z,0
2019-05-18T03:25:46.031Z,0
2019-05-18T03:27:53.862Z,0
2019-05-18T03:28:34.245Z,0
2019-05-18T03:29:14.673Z,0
2019-05-18T03:35:58.878Z,0
2019-05-18T03:36:39.306Z,0
2019-05-18T03:37:19.676Z,0
2019-05-18T03:38:00.125Z,0
2019-05-18T03:38:40.480Z,0
2019-05-18T03:39:20.903Z,0
2019-05-18T03:40:01.324Z,0
2019-05-18T03:40:41.744Z,0
2019-05-18T03:41:22.161Z,0
2019-05-18T03:42:02.581Z,0
2019-05-18T03:42:42.995Z,0
2019-05-18T03:43:23.387Z,0
2019-05-18T03:52:08.705Z,0
2019-05-18T03:52:49.099Z,0
2019-05-18T03:53:29.528Z,0
2019-05-18T03:54:09.950Z,0
2019-05-18T03:54:50.386Z,0
2019-05-18T03:55:30.785Z,0
2019-05-18T03:56:11.218Z,0
2019-05-18T03:56:51.645Z,0
2019-05-18T03:57:32.073Z,0
2019-05-18T03:58:12.534Z,0
2019-05-18T03:58:52.944Z,0
2019-05-18T03:59:33.350Z,0
2019-05-18T04:08:18.857Z,0
2019-05-18T04:08:59.287Z,0
2019-05-18T04:09:39.720Z,0
2019-05-18T04:10:20.091Z,0
2019-05-18T04:11:00.480Z,0
2019-05-18T04:11:40.894Z,0
2019-05-18T04:12:21.261Z,0
2019-05-18T04:13:01.643Z,0
2019-05-18T04:13:42.051Z,0
2019-05-18T04:14:22.398Z,0
2019-05-18T04:15:02.809Z,0
2019-05-18T04:17:40.722Z,0
2019-05-18T04:18:21.137Z,0
2019-05-18T04:19:01.585Z,0
2019-05-18T04:25:45.719Z,0
2019-05-18T04:26:26.136Z,0
2019-05-18T04:27:06.569Z,0
2019-05-18T05:06:55.660Z,5
2019-05-18T05:07:36.049Z,5
2019-05-18T05:08:16.405Z,5
2019-05-18T05:14:20.154Z,5
2019-05-18T05:15:00.564Z,5
2019-05-18T05:15:40.953Z,5
2019-05-18T05:16:21.357Z,5
2019-05-18T05:17:01.790Z,5
2019-05-18T05:17:42.156Z,5
2019-05-18T05:18:22.562Z,5
2019-05-18T05:19:02.958Z,5
2019-05-18T05:19:43.365Z,5
2019-05-18T05:21:04.161Z,10
2019-05-18T05:21:44.613Z,10
2019-05-18T05:30:30.124Z,10
2019-05-18T05:31:10.549Z,10
2019-05-18T05:31:50.974Z,10
2019-05-18T05:32:31.407Z,10
2019-05-18T05:33:11.814Z,10
2019-05-18T05:33:52.239Z,10
2019-05-18T05:34:32.681Z,10
2019-05-18T05:35:13.098Z,10
2019-05-18T05:35:53.528Z,10
2019-05-18T05:36:33.963Z,10
2019-05-18T05:37:14.368Z,10
2019-05-18T05:37:54.792Z,10
2019-05-18T05:46:40.096Z,20
2019-05-18T05:47:20.478Z,20
2019-05-18T05:48:00.894Z,15
2019-05-18T05:48:41.304Z,15
2019-05-18T05:49:21.713Z,15
2019-05-18T05:50:02.124Z,15
2019-05-18T05:50:42.494Z,15
2019-05-18T05:51:22.910Z,15
2019-05-18T05:52:03.284Z,20
2019-05-18T05:53:24.083Z,20
2019-05-18T05:54:04.447Z,20
2019-05-18T05:54:44.830Z,20
2019-05-18T06:04:10.323Z,30
2019-05-18T06:04:50.731Z,30
2019-05-18T06:05:31.163Z,35
2019-05-18T06:06:11.595Z,40
2019-05-18T06:06:52.015Z,40
2019-05-18T06:07:32.438Z,40
2019-05-18T06:08:12.894Z,45
2019-05-18T06:08:53.313Z,55
2019-05-18T06:09:33.716Z,65
2019-05-18T06:10:14.112Z,80
2019-05-18T06:10:54.529Z,85
2019-05-18T06:11:34.972Z,125
2019-05-18T06:15:08.455Z,60
2019-05-18T06:15:48.896Z,60
2019-05-18T06:16:29.285Z,60
2019-05-18T06:22:33.064Z,40
2019-05-18T06:23:13.492Z,35
2019-05-18T06:23:53.903Z,40
2019-05-18T06:24:34.339Z,40
2019-05-18T06:25:14.862Z,40
2019-05-18T06:25:55.289Z,40
2019-05-18T06:26:35.699Z,40
2019-05-18T06:27:16.120Z,45
2019-05-18T06:27:56.548Z,55
2019-05-18T06:28:36.964Z,70
2019-05-18T06:29:17.387Z,100
2019-05-18T06:29:57.782Z,170
2019-05-18T06:35:32.443Z,155
2019-05-18T06:36:12.884Z,150
2019-05-18T06:36:55.885Z,130
2019-05-18T06:39:34.995Z,205
2019-05-18T06:40:15.404Z,185
2019-05-18T06:40:55.826Z,215
2019-05-18T06:41:36.258Z,275
2019-05-18T06:42:16.676Z,275
2019-05-18T06:42:57.079Z,255
2019-05-18T06:43:37.456Z,445
2019-05-18T06:44:17.882Z,275
2019-05-18T06:44:58.302Z,210
2019-05-18T06:45:38.725Z,180
2019-05-18T06:46:19.164Z,155
2019-05-18T06:46:59.515Z,155
2019-05-18T06:55:44.891Z,300
2019-05-18T06:56:25.328Z,260
2019-05-18T06:57:05.704Z,200
2019-05-18T06:57:46.074Z,250
2019-05-18T06:58:26.505Z,395
2019-05-18T06:59:06.936Z,440
2019-05-18T06:59:47.361Z,415
2019-05-18T07:00:27.779Z,465
2019-05-18T07:01:08.214Z,400
2019-05-18T07:01:48.646Z,450
2019-05-18T07:02:29.039Z,475
2019-05-18T07:03:09.538Z,480
2019-05-18T07:10:26.714Z,410
2019-05-18T07:11:07.181Z,340
2019-05-18T07:11:47.653Z,370
2019-05-18T07:17:11.752Z,135
2019-05-18T07:17:52.200Z,135
2019-05-18T07:18:58.887Z,135
2019-05-18T07:19:39.089Z,280
2019-05-18T07:27:01.538Z,70
2019-05-18T07:27:42.007Z,65
2019-05-18T07:28:25.671Z,65
2019-05-18T07:29:07.731Z,65
2019-05-18T07:32:34.152Z,60
2019-05-18T07:33:14.484Z,60
2019-05-18T07:33:55.038Z,60
2019-05-18T07:34:36.500Z,60
2019-05-18T07:35:17.163Z,65
2019-05-18T07:36:38.007Z,65
2019-05-18T07:37:18.540Z,70
2019-05-18T07:40:04.013Z,90
2019-05-18T07:40:45.331Z,90
2019-05-18T07:41:24.918Z,95
2019-05-18T07:42:06.046Z,100
2019-05-18T07:42:46.247Z,105
2019-05-18T07:43:26.832Z,105
2019-05-18T07:44:07.938Z,105
2019-05-18T07:44:48.824Z,105
2019-05-18T07:45:28.707Z,100
2019-05-18T07:51:36.805Z,75
2019-05-18T07:52:17.301Z,75
2019-05-18T07:52:56.595Z,80
2019-05-18T07:53:37.043Z,75
2019-05-18T07:54:17.485Z,75
2019-05-18T07:54:57.906Z,75
2019-05-18T07:55:38.278Z,85
2019-05-18T07:56:18.707Z,80
2019-05-18T08:01:43.761Z,95
2019-05-18T08:02:24.227Z,95
2019-05-18T08:03:04.537Z,90
2019-05-18T08:03:44.918Z,90
2019-05-18T08:04:25.310Z,90
2019-05-18T08:05:05.800Z,80
2019-05-18T08:05:46.233Z,80
2019-05-18T08:06:26.582Z,80
2019-05-18T08:07:07.045Z,75
2019-05-18T08:08:27.786Z,75
2019-05-18T08:09:08.240Z,75
2019-05-18T08:09:49.530Z,75
2019-05-18T08:15:57.465Z,55
2019-05-18T08:16:53.061Z,55
2019-05-18T08:18:13.895Z,55
2019-05-18T08:18:54.230Z,55
2019-05-18T08:19:34.690Z,55
2019-05-18T08:20:15.098Z,55
2019-05-18T08:20:55.665Z,55
2019-05-18T08:21:36.288Z,60
2019-05-18T08:22:16.460Z,60
2019-05-18T08:22:56.885Z,60
2019-05-18T08:25:26.534Z,65
2019-05-18T08:26:07.780Z,65
2019-05-18T08:32:19.909Z,75
2019-05-18T08:33:01.649Z,80
2019-05-18T08:33:41.881Z,80
2019-05-18T08:37:44.829Z,95
2019-05-18T08:38:25.169Z,110
2019-05-18T08:39:05.599Z,105
2019-05-18T08:39:45.981Z,110
2019-05-18T08:40:26.367Z,120
2019-05-18T08:41:06.748Z,130
2019-05-18T08:41:48.793Z,130
2019-05-18T08:45:38.760Z,90
2019-05-18T08:46:18.358Z,90
2019-05-18T08:46:58.992Z,90
2019-05-18T08:47:39.428Z,85
2019-05-18T08:49:45.479Z,90
2019-05-18T08:50:25.588Z,105
2019-05-18T08:51:06.233Z,120
2019-05-18T08:51:46.737Z,125
2019-05-18T08:52:27.149Z,125
2019-05-18T08:58:32.548Z,90
2019-05-18T08:59:12.941Z,90
2019-05-18T08:59:53.293Z,85
2019-05-18T09:00:33.873Z,85
2019-05-18T09:01:14.368Z,90
2019-05-18T09:01:54.866Z,90
2019-05-18T09:02:35.429Z,100
2019-05-18T09:03:15.823Z,100
2019-05-18T09:03:56.227Z,100
2019-05-18T09:04:36.610Z,100
2019-05-18T09:05:16.998Z,100
2019-05-18T09:05:57.388Z,100
2019-05-18T09:11:22.683Z,90
2019-05-18T09:12:43.431Z,95
2019-05-18T09:13:31.246Z,95
2019-05-18T09:14:53.161Z,95
2019-05-18T09:15:34.599Z,95
2019-05-18T09:16:14.264Z,95
2019-05-18T09:16:54.638Z,100
2019-05-18T09:17:35.144Z,95
2019-05-18T09:18:15.462Z,95
2019-05-18T09:18:56.835Z,95
2019-05-18T09:24:26.295Z,85
2019-05-18T09:29:12.511Z,80
2019-05-18T09:29:52.969Z,85
2019-05-18T09:30:33.314Z,85
2019-05-18T09:31:13.918Z,85
2019-05-18T09:31:54.301Z,85
2019-05-18T09:32:34.674Z,85
2019-05-18T09:33:16.038Z,85
2019-05-18T09:33:57.024Z,85
2019-05-18T09:34:55.487Z,90
2019-05-18T09:35:36.285Z,95
2019-05-18T09:36:16.689Z,90
2019-05-18T09:41:51.219Z,100
2019-05-18T09:43:52.694Z,100
2019-05-18T09:44:34.860Z,95
2019-05-18T09:45:15.365Z,90
2019-05-18T09:45:55.801Z,90
2019-05-18T09:46:36.194Z,95
2019-05-18T09:47:17.258Z,90
2019-05-18T09:52:45.172Z,80
2019-05-18T09:53:22.899Z,80
2019-05-18T09:54:03.288Z,80
2019-05-18T09:54:43.887Z,80
2019-05-18T09:55:24.289Z,80
2019-05-18T09:56:04.735Z,80
2019-05-18T09:56:45.145Z,80
2019-05-18T09:57:25.443Z,80
2019-05-18T09:58:05.981Z,85
2019-05-18T09:58:46.484Z,85
2019-05-18T09:59:26.792Z,80
2019-05-18T10:00:07.204Z,85
2019-05-18T10:07:32.878Z,95
2019-05-18T10:08:15.099Z,100
2019-05-18T10:08:57.277Z,110
2019-05-18T10:11:03.196Z,115
2019-05-18T10:11:43.694Z,115
2019-05-18T10:12:24.786Z,110
2019-05-18T10:13:04.473Z,110
2019-05-18T10:13:44.976Z,110
2019-05-18T10:14:25.337Z,105
2019-05-18T10:15:05.871Z,105
2019-05-18T10:15:46.380Z,105
2019-05-18T10:16:26.657Z,105
2019-05-18T10:19:53.237Z,95
2019-05-18T10:20:33.670Z,95
2019-05-18T10:21:14.017Z,95
2019-05-18T10:21:54.427Z,95
2019-05-18T10:22:34.817Z,95
2019-05-18T10:23:16.946Z,95
2019-05-18T11:07:08.576Z,70
2019-05-18T11:07:48.885Z,70
2019-05-18T11:08:30.944Z,75
2019-05-18T11:09:11.284Z,80
2019-05-18T11:10:34.181Z,80
2019-05-18T11:11:14.506Z,85
2019-05-18T11:11:56.885Z,85
2019-05-18T11:12:37.298Z,85
2019-05-18T11:16:43.582Z,85
2019-05-18T11:17:23.998Z,80
2019-05-18T11:18:04.366Z,80
2019-05-18T11:18:44.785Z,70
2019-05-18T11:19:27.644Z,75
2019-05-18T11:20:07.995Z,65
2019-05-18T11:20:48.378Z,65
2019-05-18T11:27:34.813Z,70
2019-05-18T11:28:17.011Z,80
2019-05-18T11:28:57.371Z,85
2019-05-18T11:31:39.572Z,60
2019-05-18T11:32:20.019Z,60
2019-05-18T11:33:01.536Z,70
2019-05-18T11:33:42.279Z,70
2019-05-18T11:34:24.334Z,60
2019-05-18T11:35:04.763Z,65
2019-05-18T11:35:45.149Z,75
2019-05-18T11:36:25.529Z,75
2019-05-18T11:37:05.959Z,65
2019-05-18T11:39:51.542Z,60
2019-05-18T11:40:31.952Z,60
2019-05-18T11:41:12.603Z,65
2019-05-18T11:41:54.680Z,65
2019-05-18T11:42:35.097Z,80
2019-05-18T11:43:15.485Z,80
2019-05-18T11:43:55.901Z,75
2019-05-18T11:51:22.691Z,85
2019-05-18T11:52:03.436Z,90
2019-05-18T11:52:44.110Z,85
2019-05-18T11:53:24.883Z,65
2019-05-18T11:54:05.167Z,65
2019-05-18T11:54:45.730Z,70
2019-05-18T11:58:57.548Z,65
2019-05-18T11:59:38.022Z,60
2019-05-18T12:00:18.372Z,60
2019-05-18T12:00:58.742Z,65
2019-05-18T12:01:39.157Z,65
2019-05-18T12:02:19.625Z,65
2019-05-18T12:02:59.939Z,70
2019-05-18T12:03:40.353Z,65
2019-05-18T12:04:20.754Z,80
2019-05-18T12:05:01.340Z,75
2019-05-18T12:05:41.498Z,65
2019-05-18T12:06:21.864Z,65
2019-05-18T12:07:02.293Z,60
2019-05-18T12:11:49.045Z,80
2019-05-18T12:12:29.298Z,80
2019-05-18T12:13:09.784Z,80
2019-05-18T12:13:50.145Z,80
2019-05-18T12:14:30.532Z,80
2019-05-18T12:15:10.980Z,75
2019-05-18T12:15:51.415Z,80
2019-05-18T12:16:31.808Z,80
2019-05-18T12:17:12.169Z,85
2019-05-18T12:25:57.542Z,80
2019-05-18T12:26:37.887Z,85
2019-05-18T12:27:18.251Z,85
2019-05-18T12:27:58.751Z,85
2019-05-18T12:28:39.134Z,75
2019-05-18T12:29:19.541Z,70
2019-05-18T12:30:01.701Z,70
2019-05-18T12:30:42.163Z,75
2019-05-18T12:32:50.545Z,75
2019-05-18T12:33:30.986Z,80
2019-05-18T12:34:11.279Z,80
2019-05-18T12:34:51.717Z,75
2019-05-18T12:35:32.119Z,80
2019-05-18T12:40:57.787Z,70
2019-05-18T12:41:38.187Z,75
2019-05-18T12:42:18.594Z,75
2019-05-18T12:42:59.020Z,70
2019-05-18T12:43:39.386Z,70
2019-05-18T12:44:19.777Z,75
2019-05-18T12:45:00.178Z,65
2019-05-18T12:45:40.625Z,60
2019-05-18T12:46:20.996Z,55
2019-05-18T12:47:01.346Z,55
2019-05-18T12:47:41.818Z,50
2019-05-18T12:48:22.134Z,50
2019-05-18T12:56:28.645Z,50
2019-05-18T12:57:08.890Z,45
2019-05-18T12:57:49.351Z,45
2019-05-18T12:58:29.767Z,45
2019-05-18T12:59:10.157Z,45
2019-05-18T12:59:50.559Z,45
2019-05-18T13:00:30.910Z,45
2019-05-18T13:01:52.365Z,45
2019-05-18T13:05:27.492Z,45
2019-05-18T13:06:07.980Z,45
2019-05-18T13:06:48.426Z,45
2019-05-18T13:13:32.514Z,45
2019-05-18T13:14:12.789Z,40
2019-05-18T13:14:53.226Z,40
2019-05-18T13:15:33.595Z,40
2019-05-18T13:16:14.013Z,40
2019-05-18T13:16:54.426Z,40
2019-05-18T13:17:34.912Z,40
2019-05-18T13:18:15.244Z,40
2019-05-18T13:18:55.644Z,45
2019-05-18T13:19:36.007Z,45
2019-05-18T13:20:16.760Z,45
2019-05-18T13:20:56.771Z,45
2019-05-18T13:21:37.177Z,45
2019-05-18T13:27:42.353Z,45
2019-05-18T13:28:23.186Z,45
2019-05-18T13:29:03.556Z,45
2019-05-18T13:29:43.955Z,50
2019-05-18T13:32:32.684Z,55
2019-05-18T13:33:12.951Z,50
2019-05-18T13:33:53.367Z,45
2019-05-18T13:34:33.803Z,50
2019-05-18T13:35:14.177Z,55
2019-05-18T13:35:54.627Z,55
2019-05-18T13:36:34.947Z,55
2019-05-18T13:37:15.328Z,55
2019-05-18T13:37:55.720Z,55
2019-05-18T13:41:22.463Z,55
2019-05-18T13:42:02.632Z,55
2019-05-18T13:42:43.576Z,55
2019-05-18T13:43:23.712Z,60
2019-05-18T13:44:04.114Z,60
2019-05-18T13:44:44.463Z,60
2019-05-18T13:45:24.863Z,60
2019-05-18T13:46:05.315Z,60
2019-05-18T13:46:45.710Z,60
2019-05-18T13:47:26.186Z,45
2019-05-18T13:48:06.581Z,60
2019-05-18T13:48:46.940Z,60
2019-05-18T13:49:27.451Z,60
2019-05-18T13:56:52.636Z,60
2019-05-18T13:57:33.037Z,55
2019-05-18T13:58:13.422Z,55
2019-05-18T13:58:53.803Z,55
2019-05-18T13:59:43.494Z,55
2019-05-18T14:00:26.134Z,55
2019-05-18T14:01:06.491Z,55
2019-05-18T14:01:47.159Z,55
2019-05-18T14:08:32.465Z,60
2019-05-18T14:09:13.841Z,60
2019-05-18T14:09:54.234Z,60
2019-05-18T14:10:34.943Z,55
2019-05-18T14:11:15.301Z,60
2019-05-18T14:11:55.678Z,60
2019-05-18T14:12:36.073Z,60
2019-05-18T14:19:19.871Z,60
2019-05-18T14:20:00.592Z,60
2019-05-18T14:20:43.536Z,55
2019-05-18T14:22:44.809Z,50
2019-05-18T14:23:25.146Z,50
2019-05-18T14:24:05.506Z,50
2019-05-18T14:24:45.940Z,50
2019-05-18T14:25:26.319Z,55
2019-05-18T14:26:06.855Z,60
2019-05-18T14:26:47.209Z,65
2019-05-18T14:27:27.625Z,60
2019-05-18T14:28:08.041Z,60
2019-05-18T14:28:48.906Z,60
2019-05-18T14:29:29.206Z,50
2019-05-18T14:36:14.609Z,60
2019-05-18T14:36:55.117Z,50
2019-05-18T14:37:35.429Z,50
2019-05-18T14:38:15.894Z,50
2019-05-18T14:41:58.641Z,65
2019-05-18T14:44:24.696Z,55
2019-05-18T14:45:07.044Z,60
2019-05-18T14:45:49.280Z,60
2019-05-18T14:46:27.780Z,65
2019-05-18T14:47:08.316Z,65
2019-05-18T14:47:48.713Z,65
2019-05-18T14:48:29.135Z,65
2019-05-18T14:49:09.570Z,65
2019-05-18T14:49:49.894Z,65
2019-05-18T14:50:30.373Z,65
2019-05-18T14:51:10.789Z,65
2019-05-18T14:51:51.336Z,65
2019-05-18T14:52:31.621Z,65
2019-05-18T14:59:16.908Z,65
2019-05-18T15:00:02.162Z,60
2019-05-18T15:00:40.109Z,60
2019-05-18T15:01:20.539Z,60
2019-05-18T15:02:01.078Z,60
2019-05-18T15:04:06.835Z,55
2019-05-18T15:04:47.328Z,55
2019-05-18T15:05:27.903Z,55
2019-05-18T15:06:08.678Z,55
2019-05-18T15:06:49.101Z,55
2019-05-18T15:07:29.625Z,55
2019-05-18T15:08:09.893Z,55
2019-05-18T15:08:50.248Z,55
2019-05-18T15:09:30.737Z,55
2019-05-18T15:10:11.116Z,55
2019-05-18T15:10:51.583Z,55
2019-05-18T15:19:37.109Z,50
2019-05-18T15:20:17.462Z,50
2019-05-18T15:25:50.486Z,55
2019-05-18T15:26:27.481Z,55
2019-05-18T15:27:08.412Z,55
2019-05-18T15:27:48.696Z,55
2019-05-18T15:28:29.132Z,55
2019-05-18T15:29:09.520Z,55
2019-05-18T15:29:49.951Z,55
2019-05-18T15:30:30.296Z,55
2019-05-18T15:37:56.997Z,50
2019-05-18T15:38:37.402Z,45
2019-05-18T15:39:17.771Z,45
2019-05-18T15:39:58.162Z,45
2019-05-18T15:40:38.570Z,45
2019-05-18T15:41:18.985Z,50
2019-05-18T15:41:59.325Z,50
2019-05-18T15:42:39.797Z,50
2019-05-18T15:43:20.173Z,45
2019-05-18T15:44:00.756Z,45
2019-05-18T15:44:41.237Z,45
2019-05-18T15:45:24.279Z,45
2019-05-18T15:49:26.863Z,45
2019-05-18T15:50:07.258Z,45
2019-05-18T15:50:47.710Z,45
2019-05-18T15:51:28.081Z,45
2019-05-18T15:52:08.487Z,45
2019-05-18T15:52:48.800Z,40
2019-05-18T15:53:29.201Z,40
2019-05-18T15:54:09.609Z,40
2019-05-18T15:54:50.003Z,40
2019-05-18T15:55:30.398Z,40
2019-05-18T15:56:10.879Z,40
2019-05-18T15:56:51.283Z,40
2019-05-18T16:04:56.508Z,40
2019-05-18T16:05:37.540Z,40
2019-05-18T16:06:17.423Z,40
2019-05-18T16:06:57.872Z,40
2019-05-18T16:07:38.850Z,40
2019-05-18T16:08:19.221Z,40
2019-05-18T16:08:59.564Z,40
2019-05-18T16:09:40.033Z,40
2019-05-18T16:10:20.426Z,35
2019-05-18T16:11:00.835Z,35
2019-05-18T16:11:41.289Z,35
2019-05-18T16:15:07.052Z,30
2019-05-18T16:15:47.426Z,30
2019-05-18T16:16:27.832Z,30
2019-05-18T16:17:08.179Z,30
2019-05-18T16:17:48.619Z,30
2019-05-18T16:18:30.626Z,30
2019-05-18T16:19:10.983Z,30
2019-05-18T16:25:17.201Z,25
2019-05-18T16:25:57.526Z,25
2019-05-18T16:26:37.936Z,25
2019-05-18T16:27:18.336Z,25
2019-05-18T16:27:58.811Z,25
2019-05-18T16:28:39.156Z,25
2019-05-18T16:30:00.041Z,25
2019-05-18T17:10:18.469Z,20
2019-05-18T17:10:58.835Z,20
2019-05-18T17:11:39.359Z,20
2019-05-18T17:12:23.428Z,20
2019-05-18T17:13:03.844Z,20
2019-05-18T17:13:44.220Z,20
2019-05-18T17:14:24.675Z,20
2019-05-18T17:15:05.067Z,20
2019-05-18T17:15:45.749Z,20
2019-05-18T17:16:26.205Z,20
2019-05-18T17:18:45.133Z,20
2019-05-18T17:19:25.662Z,20
2019-05-18T17:20:06.039Z,20
2019-05-18T17:24:08.856Z,15
2019-05-18T17:24:49.217Z,15
2019-05-18T17:27:29.232Z,15
2019-05-18T17:28:09.622Z,15
2019-05-18T17:28:50.025Z,15
2019-05-18T17:30:11.527Z,15
2019-05-18T17:32:31.278Z,15
2019-05-18T17:33:11.269Z,15
2019-05-18T17:33:51.625Z,15
2019-05-18T17:38:34.636Z,15
2019-05-18T17:39:15.017Z,15
2019-05-18T17:39:55.440Z,15
2019-05-18T17:40:35.814Z,15
2019-05-18T17:41:16.222Z,15
2019-05-18T17:41:56.663Z,15
2019-05-18T17:42:37.063Z,15
2019-05-18T17:43:17.748Z,15
2019-05-18T17:43:57.832Z,15
2019-05-18T17:44:38.258Z,15
2019-05-18T17:45:19.819Z,15
2019-05-18T17:52:45.145Z,15
2019-05-18T17:53:25.525Z,15
2019-05-18T17:54:05.916Z,15
2019-05-18T17:54:46.327Z,15
2019-05-18T17:55:26.718Z,15
2019-05-18T17:56:07.120Z,15
2019-05-18T17:56:47.483Z,15
2019-05-18T17:57:27.887Z,15
2019-05-18T17:58:08.276Z,15
2019-05-18T17:58:48.659Z,15
2019-05-18T17:59:29.105Z,15
2019-05-18T18:00:09.559Z,15
2019-05-18T18:08:54.842Z,10
2019-05-18T18:09:35.267Z,10
2019-05-18T18:10:15.656Z,10
2019-05-18T18:10:56.056Z,10
2019-05-18T18:11:36.496Z,10
2019-05-18T18:12:16.915Z,10
2019-05-18T18:12:57.343Z,10
2019-05-18T18:13:38.028Z,10
2019-05-18T18:14:18.392Z,10
2019-05-18T18:14:58.817Z,10
2019-05-18T18:15:39.263Z,10
2019-05-18T18:16:19.655Z,10
2019-05-18T18:25:04.926Z,10
2019-05-18T18:25:45.316Z,5
2019-05-18T18:26:25.726Z,5
2019-05-18T18:27:06.230Z,5
2019-05-18T18:27:46.638Z,5
2019-05-18T18:28:27.045Z,5
2019-05-18T18:29:07.422Z,5
2019-05-18T18:29:47.805Z,5
2019-05-18T18:30:28.227Z,5
2019-05-18T18:31:08.665Z,5
2019-05-18T18:31:49.025Z,5
2019-05-18T18:32:29.383Z,5
2019-05-18T18:39:50.561Z,5
2019-05-18T18:40:30.956Z,5
2019-05-18T18:41:11.396Z,5
2019-05-18T18:47:55.575Z,0
2019-05-18T18:48:35.940Z,0
2019-05-18T18:49:16.334Z,0
2019-05-18T18:49:57.615Z,0
2019-05-18T18:50:38.044Z,0
2019-05-18T18:51:18.427Z,0
2019-05-18T18:51:58.846Z,0
2019-05-18T18:52:39.229Z,0
2019-05-18T18:53:19.657Z,0
2019-05-18T18:54:00.079Z,0
2019-05-18T19:02:05.535Z,0
2019-05-18T19:02:45.966Z,0
2019-05-18T19:03:26.370Z,0
2019-05-18T19:04:06.762Z,0
2019-05-18T19:04:47.184Z,0
2019-05-18T19:05:27.589Z,0
2019-05-18T19:06:07.987Z,0
2019-05-18T19:06:48.414Z,0
2019-05-18T19:07:28.780Z,0
2019-05-18T19:08:09.215Z,0
2019-05-18T19:08:49.603Z,0
2019-05-18T19:09:29.926Z,0
2019-05-18T19:17:35.899Z,0
2019-05-18T19:18:16.311Z,0
2019-05-18T19:18:56.703Z,0
2019-05-18T19:19:39.923Z,0
2019-05-18T19:20:17.791Z,0
2019-05-18T19:20:58.281Z,0
2019-05-18T19:21:38.757Z,0
2019-05-18T19:22:20.011Z,0
2019-05-18T19:22:59.812Z,0
2019-05-18T19:31:05.473Z,0
2019-05-18T19:31:46.339Z,0
2019-05-18T19:32:26.958Z,0
2019-05-18T19:33:07.601Z,0
2019-05-18T19:33:48.107Z,0
2019-05-18T19:34:29.660Z,0
2019-05-18T19:40:35.603Z,0
2019-05-18T19:41:16.324Z,0
2019-05-18T19:41:57.020Z,0
2019-05-18T19:42:37.915Z,0
2019-05-18T19:43:18.333Z,0
2019-05-18T19:43:58.813Z,0
2019-05-18T19:44:39.288Z,0
2019-05-18T19:45:19.656Z,0
2019-05-18T19:49:39.349Z,0
2019-05-18T19:50:39.376Z,0
2019-05-18T19:51:45.718Z,0
2019-05-18T19:54:48.021Z,0
2019-05-18T19:55:48.626Z,0
2019-05-18T19:57:01.818Z,0
2019-05-18T19:59:13.643Z,0
2019-05-18T19:59:54.296Z,0
2019-05-18T20:00:34.603Z,0
2019-05-18T20:03:18.266Z,0
2019-05-18T20:04:18.718Z,0
2019-05-18T20:05:07.049Z,0
2019-05-18T20:05:40.186Z,0
2019-05-18T20:06:19.969Z,0
2019-05-18T20:07:00.758Z,0
2019-05-18T20:07:41.672Z,0
2019-05-18T20:08:21.834Z,0
2019-05-18T20:09:02.192Z,0
2019-05-18T20:09:42.743Z,0
2019-05-18T20:13:14.891Z,0
2019-05-18T20:13:55.296Z,0
2019-05-18T20:14:36.183Z,0
2019-05-18T20:17:19.465Z,0
2019-05-18T20:18:00.416Z,0
2019-05-18T20:18:40.854Z,0
2019-05-18T20:19:21.534Z,0
2019-05-18T20:20:01.684Z,0
2019-05-18T20:20:42.049Z,0
2019-05-18T20:21:22.537Z,0
2019-05-18T20:22:02.842Z,0
2019-05-18T20:22:43.224Z,0
2019-05-18T20:23:23.727Z,0
2019-05-18T20:24:04.066Z,0
2019-05-18T20:24:44.396Z,0
2019-05-18T20:33:29.499Z,0
2019-05-18T20:34:09.903Z,0
2019-05-18T20:34:50.306Z,0
2019-05-18T20:35:30.673Z,0
2019-05-18T20:37:48.454Z,0
2019-05-18T20:38:29.787Z,0
2019-05-18T20:39:09.638Z,0
2019-05-18T20:45:13.321Z,0
2019-05-18T20:45:53.782Z,0
2019-05-18T20:46:34.219Z,0
2019-05-18T20:47:14.609Z,0
2019-05-18T20:47:55.008Z,0
2019-05-18T20:48:35.428Z,0
2019-05-18T20:49:15.943Z,0
2019-05-18T20:49:56.291Z,0